createdAt,value
2022-09-26T00:05:08.732Z,97382.00
2022-09-26T00:10:11.762Z,97371.00
2022-09-26T00:15:14.403Z,97365.00
2022-09-26T00:20:17.748Z,97370.00
2022-09-26T00:25:20.369Z,97368.00
2022-09-26T00:30:23.095Z,97375.00
2022-09-26T00:35:28.046Z,97373.00
2022-09-26T00:40:31.258Z,97358.00
2022-09-26T00:45:34.147Z,97365.00
2022-09-26T00:50:41.633Z,97361.00
2022-09-26T00:56:08.865Z,97354.00
2022-09-26T01:01:30.607Z,97348.00
2022-09-26T01:06:59.845Z,97348.00
2022-09-26T01:12:27.715Z,97348.00
2022-09-26T01:17:38.958Z,97343.00
2022-09-26T01:23:02.745Z,97342.00
2022-09-26T01:28:28.204Z,97331.00
2022-09-26T01:33:59.064Z,97332.00
2022-09-26T01:39:17.565Z,97339.00
2022-09-26T01:44:49.719Z,97348.00
2022-09-26T01:49:58.871Z,97344.00
2022-09-26T01:55:20.384Z,97341.00
2022-09-26T02:00:27.222Z,97325.00
2022-09-26T02:06:15.273Z,97326.00
2022-09-26T02:11:25.298Z,97316.00
2022-09-26T02:17:08.536Z,97317.00
2022-09-26T02:22:24.391Z,97305.00
2022-09-26T02:27:49.324Z,97308.00
2022-09-26T02:33:10.044Z,97302.00
2022-09-26T02:38:21.426Z,97289.00
2022-09-26T02:44:23.510Z,97285.00
2022-09-26T02:49:39.734Z,97273.00
2022-09-26T02:54:53.923Z,97284.00
2022-09-26T03:00:18.034Z,97289.00
2022-09-26T03:05:41.315Z,97283.00
2022-09-26T03:10:55.781Z,97276.00
2022-09-26T03:16:33.912Z,97275.00
2022-09-26T03:21:42.853Z,97273.00
2022-09-26T03:27:00.003Z,97273.00
2022-09-26T03:32:15.698Z,97264.00
2022-09-26T03:37:36.245Z,97268.00
2022-09-26T03:42:56.923Z,97266.00
2022-09-26T03:48:05.353Z,97254.00
2022-09-26T03:53:20.275Z,97256.00
2022-09-26T03:58:52.596Z,97254.00
2022-09-26T04:04:26.130Z,97245.00
2022-09-26T04:09:39.206Z,97252.00
2022-09-26T04:14:48.090Z,97245.00
2022-09-26T04:19:51.498Z,97239.00
2022-09-26T04:24:54.687Z,97248.00
2022-09-26T04:30:07.658Z,97240.00
2022-09-26T04:35:17.103Z,97238.00
2022-09-26T04:40:19.865Z,97223.00
2022-09-26T04:45:43.535Z,97223.00
2022-09-26T04:50:58.988Z,97219.00
2022-09-26T04:56:23.672Z,97214.00
2022-09-26T05:01:45.230Z,97221.00
2022-09-26T05:07:07.495Z,97216.00
2022-09-26T05:12:24.813Z,97224.00
2022-09-26T05:18:02.652Z,97215.00
2022-09-26T05:23:13.700Z,97220.00
2022-09-26T05:28:37.186Z,97223.00
2022-09-26T05:33:55.559Z,97218.00
2022-09-26T05:39:04.381Z,97220.00
2022-09-26T05:44:15.859Z,97212.00
2022-09-26T05:49:22.317Z,97210.00
2022-09-26T05:54:25.387Z,97202.00
2022-09-26T05:59:30.465Z,97207.00
2022-09-26T06:05:03.139Z,97211.00
2022-09-26T06:10:27.186Z,97207.00
2022-09-26T06:15:36.282Z,97200.00
2022-09-26T06:20:39.050Z,97196.00
2022-09-26T06:25:42.477Z,97199.00
2022-09-26T06:30:45.582Z,97195.00
2022-09-26T06:36:28.245Z,97200.00
2022-09-26T06:41:49.306Z,97204.00
2022-09-26T06:47:26.310Z,97189.00
2022-09-26T06:52:56.201Z,97190.00
2022-09-26T06:58:04.448Z,97183.00
2022-09-26T07:03:45.960Z,97191.00
2022-09-26T07:09:32.676Z,97185.00
2022-09-26T07:15:01.254Z,97184.00
2022-09-26T07:20:09.309Z,97188.00
2022-09-26T07:25:32.017Z,97183.00
2022-09-26T07:30:37.105Z,97174.00
2022-09-26T07:36:01.901Z,97175.00
2022-09-26T07:41:33.998Z,97187.00
2022-09-26T07:47:33.670Z,97174.00
2022-09-26T07:52:56.094Z,97167.00
2022-09-26T07:58:14.817Z,97171.00
2022-09-26T08:04:06.999Z,97165.00
2022-09-26T08:09:16.996Z,97163.00
2022-09-26T08:14:39.890Z,97167.00
2022-09-26T08:19:59.567Z,97169.00
2022-09-26T08:25:03.314Z,97179.00
2022-09-26T08:36:20.991Z,97172.00
2022-09-26T08:42:08.997Z,97173.00
2022-09-26T08:47:53.866Z,97169.00
2022-09-26T08:53:39.566Z,97160.00
2022-09-26T08:59:03.594Z,97152.00
2022-09-26T09:05:02.341Z,97144.00
2022-09-26T09:10:19.843Z,97145.00
2022-09-26T09:16:21.953Z,97148.00
2022-09-26T09:22:05.779Z,97137.00
2022-09-26T09:28:08.072Z,97126.00
2022-09-26T09:33:31.180Z,97119.00
2022-09-26T09:39:05.145Z,97106.00
2022-09-26T09:44:36.904Z,97113.00
2022-09-26T09:49:39.617Z,97119.00
2022-09-26T09:55:17.571Z,97136.00
2022-09-26T10:00:28.304Z,97121.00
2022-09-26T10:06:03.783Z,97111.00
2022-09-26T10:11:34.181Z,97094.00
2022-09-26T10:17:30.548Z,97096.00
2022-09-26T10:23:06.233Z,97096.00
2022-09-26T10:28:39.086Z,97092.00
2022-09-26T10:34:06.173Z,97084.00
2022-09-26T10:39:35.583Z,97085.00
2022-09-26T10:44:38.901Z,97085.00
2022-09-26T10:50:04.733Z,97086.00
2022-09-26T10:55:39.660Z,97072.00
2022-09-26T11:00:50.465Z,97069.00
2022-09-26T11:06:11.966Z,97072.00
2022-09-26T11:11:26.110Z,97061.00
2022-09-26T11:17:07.313Z,97049.00
2022-09-26T11:22:53.351Z,97044.00
2022-09-26T11:28:36.609Z,97053.00
2022-09-26T11:34:21.356Z,97048.00
2022-09-26T11:39:42.825Z,97055.00
2022-09-26T11:45:17.588Z,97044.00
2022-09-26T11:56:58.368Z,97036.00
2022-09-26T12:02:41.585Z,97026.00
2022-09-26T12:08:04.674Z,97022.00
2022-09-26T12:13:50.287Z,97011.00
2022-09-26T12:19:23.275Z,96999.00
2022-09-26T12:24:55.874Z,96997.00
2022-09-26T12:30:04.326Z,96986.00
2022-09-26T12:35:22.050Z,96991.00
2022-09-26T12:40:44.423Z,96986.00
2022-09-26T12:46:43.893Z,96978.00
2022-09-26T12:52:15.707Z,96965.00
2022-09-26T12:57:51.864Z,96965.00
2022-09-26T13:03:43.749Z,96949.00
2022-09-26T13:09:41.985Z,96948.00
2022-09-26T13:15:08.488Z,96934.00
2022-09-26T13:20:31.601Z,96928.00
2022-09-26T13:25:57.208Z,96930.00
2022-09-26T13:32:02.510Z,96937.00
2022-09-26T13:38:02.064Z,96937.00
2022-09-26T13:43:24.200Z,96928.00
2022-09-26T13:49:07.025Z,96930.00
2022-09-26T13:54:46.242Z,96919.00
2022-09-26T13:59:54.417Z,96915.00
2022-09-26T14:05:19.554Z,96903.00
2022-09-26T14:10:39.933Z,96898.00
2022-09-26T14:16:27.016Z,96898.00
2022-09-26T14:21:58.603Z,96891.00
2022-09-26T14:27:40.886Z,96881.00
2022-09-26T14:33:01.964Z,96879.00
2022-09-26T14:38:25.689Z,96868.00
2022-09-26T14:43:31.777Z,96866.00
2022-09-26T14:48:44.068Z,96852.00
2022-09-26T14:54:01.480Z,96845.00
2022-09-26T14:59:39.601Z,96836.00
2022-09-26T15:05:18.539Z,96833.00
2022-09-26T15:10:34.402Z,96832.00
2022-09-26T15:16:21.856Z,96822.00
2022-09-26T15:22:09.131Z,96821.00
2022-09-26T15:27:46.047Z,96832.00
2022-09-26T15:33:23.336Z,96804.00
2022-09-26T15:38:31.191Z,96824.00
2022-09-26T15:44:03.315Z,96816.00
2022-09-26T15:49:22.399Z,96803.00
2022-09-26T15:54:33.098Z,96807.00
2022-09-26T15:59:41.381Z,96806.00
2022-09-26T16:05:13.842Z,96802.00
2022-09-26T16:10:37.450Z,96796.00
2022-09-26T16:15:55.534Z,96796.00
2022-09-26T16:21:37.585Z,96791.00
2022-09-26T16:27:06.476Z,96788.00
2022-09-26T16:32:41.549Z,96787.00
2022-09-26T16:38:32.480Z,96787.00
2022-09-26T16:43:58.282Z,96784.00
2022-09-26T16:49:29.985Z,96784.00
2022-09-26T16:54:33.118Z,96780.00
2022-09-26T16:59:35.786Z,96781.00
2022-09-26T17:05:06.738Z,96779.00
2022-09-26T17:10:14.894Z,96770.00
2022-09-26T17:15:26.329Z,96768.00
2022-09-26T17:20:29.455Z,96760.00
2022-09-26T17:25:32.609Z,96751.00
2022-09-26T17:30:35.720Z,96756.00
2022-09-26T17:35:40.697Z,96753.00
2022-09-26T17:40:50.709Z,96749.00
2022-09-26T17:51:43.055Z,96747.00
2022-09-26T17:57:04.156Z,96754.00
2022-09-26T18:08:19.726Z,96734.00
2022-09-26T18:13:44.334Z,96730.00
2022-09-26T18:18:48.151Z,96731.00
2022-09-26T18:24:09.218Z,96729.00
2022-09-26T18:29:38.518Z,96729.00
2022-09-26T18:34:43.149Z,96716.00
2022-09-26T18:39:46.517Z,96701.00
2022-09-26T18:45:12.496Z,96714.00
2022-09-26T18:50:36.830Z,96705.00
2022-09-26T18:56:09.572Z,96704.00
2022-09-26T19:01:17.282Z,96706.00
2022-09-26T19:06:55.632Z,96701.00
2022-09-26T19:11:58.569Z,96701.00
2022-09-26T19:17:07.232Z,96699.00
2022-09-26T19:22:23.375Z,96685.00
2022-09-26T19:28:01.773Z,96689.00
2022-09-26T19:33:04.505Z,96678.00
2022-09-26T19:38:37.365Z,96675.00
2022-09-26T19:44:00.952Z,96668.00
2022-09-26T19:49:21.779Z,96673.00
2022-09-26T19:54:29.240Z,96658.00
2022-09-26T19:59:36.436Z,96662.00
2022-09-26T20:05:02.116Z,96663.00
2022-09-26T20:10:21.071Z,96655.00
2022-09-26T20:15:24.444Z,96654.00
2022-09-26T20:20:27.871Z,96640.00
2022-09-26T20:25:32.954Z,96637.00
2022-09-26T20:31:03.782Z,96628.00
2022-09-26T20:36:48.061Z,96628.00
2022-09-26T20:42:19.652Z,96622.00
2022-09-26T20:47:43.335Z,96614.00
2022-09-26T20:53:03.039Z,96605.00
2022-09-26T20:58:17.108Z,96605.00
2022-09-26T21:03:35.919Z,96599.00
2022-09-26T21:08:50.899Z,96587.00
2022-09-26T21:14:11.660Z,96579.00
2022-09-26T21:19:26.173Z,96569.00
2022-09-26T21:24:41.287Z,96543.00
2022-09-26T21:29:44.028Z,96524.00
2022-09-26T21:35:01.664Z,96528.00
2022-09-26T21:40:04.504Z,96527.00
2022-09-26T21:45:10.464Z,96532.00
2022-09-26T21:50:13.476Z,96518.00
2022-09-26T21:55:29.869Z,96517.00
2022-09-26T22:00:32.552Z,96502.00
2022-09-26T22:11:20.032Z,96491.00
2022-09-26T22:16:26.954Z,96467.00
2022-09-26T22:22:05.873Z,96459.00
2022-09-26T22:27:21.950Z,96451.00
2022-09-26T22:32:38.347Z,96447.00
2022-09-26T22:37:58.781Z,96445.00
2022-09-26T22:43:13.070Z,96438.00
2022-09-26T22:48:28.624Z,96433.00
2022-09-26T22:53:49.816Z,96414.00
2022-09-26T22:59:08.255Z,96404.00
2022-09-26T23:04:59.719Z,96403.00
2022-09-26T23:10:05.368Z,96383.00
2022-09-26T23:15:09.538Z,96372.00
2022-09-26T23:20:12.169Z,96363.00
2022-09-26T23:25:14.802Z,96360.00
2022-09-26T23:30:17.461Z,96347.00
2022-09-26T23:35:20.211Z,96344.00
2022-09-26T23:40:23.343Z,96335.00
2022-09-26T23:45:28.604Z,96331.00
2022-09-26T23:50:31.247Z,96324.00
2022-09-26T23:55:34.486Z,96325.00
